x

Halifax Harbour (44258) Wave Buoy

7:00pm - Thu 17th Apr 2014 All times are EDT. -4 hours from GMT.

  • Sig Wave height 2.3ft
  • Peak Period 10s
  • Wind
    7mph, 9mph gusts
  • Sea Temp 34°f
  • Air Temp 33°f
  • Sea Pressure 1042.3mb
  • Halifax Harbour
  • Halifax Harbour

More Historic Weather Station data

Upgrade to MSW Pro to gain access to the past 30 days of data for over 8000 Wavebouys and Weather Stations around the globe.

Join Pro

Comparision Forecast

View Surf forecast
   
Thu 04/17 7:00pm 2.5ft 10s 7 9 mph 1042.3mb 34f 33f
6:00pm 3ft 10s 7 9 mph 1042mb 35f 33f
5:00pm 3ft 10s 7 11 mph 1042.1mb 35f 33f
4:00pm 3.5ft 11s 9 11 mph 1041.9mb 35f 33f
3:00pm 3.5ft 10s 9 13 mph 1042mb 35f 33f
2:00pm 3.5ft 10s 9 11 mph 1042.6mb 35f 32f
1:00pm 3.5ft 10s 9 11 mph 1042.6mb 35f 32f
12:00pm 4ft 11s 4 9 mph 1042.5mb 35f 35f
11:00am 4ft 10s 9 13 mph 1042.4mb 35f 34f
10:00am 4.5ft 10s 13 16 mph 1042.3mb 34f 32f
9:00am 4.5ft 10s 13 16 mph 1042mb 34f 30f
8:00am 5ft 11s 16 20 mph 1041.5mb 34f 29f
7:00am 5.5ft 12s 18 22 mph 1040.4mb 34f 29f
6:00am 5.5ft 11s 20 25 mph 1039.2mb 34f 28f
4:00am 7ft 11s 18 22 mph 1037.3mb 34f 30f
3:00am 7ft 10s 18 22 mph 1036.6mb 34f 31f
2:00am 7ft 11s 20 25 mph 1035.4mb 34f 31f
1:00am  -   -  18
mph
1033.9mb - 32f
12:00am 8ft 11s 16 22 mph 1033.1mb 34f 32f
Wed 04/16 11:00pm 9.5ft 11s 18 20 mph 1031.8mb 34f 33f
10:00pm 9.5ft 12s 16 20 mph 1031.1mb 34f 34f
9:00pm 9ft 10s 13 18 mph 1029.9mb 34f 35f
8:00pm 9ft 11s 16 18 mph 1028.4mb 34f 36f
7:00pm 10ft 11s 13 18 mph 1026.5mb 34f 37f
6:00pm 10ft 11s 13 22 mph 1024.2mb 34f 37f
5:00pm 10ft 10s 13 18 mph 1022.5mb 34f 37f
4:00pm 10ft 11s 16 20 mph 1020.7mb 35f 37f
3:00pm 10ft 10s 11 13 mph 1018.7mb 35f 38f
2:00pm 11ft 10s 16 18 mph 1016.7mb 34f 38f
1:00pm 11.5ft 11s 16 20 mph 1014.7mb 34f 40f
12:00pm 12ft 10s 9 13 mph 1012.2mb 34f 38f
11:00am 13ft 11s 13 18 mph 1011mb 35f 40f
10:00am 15ft 10s 22 27 mph 1009.6mb 35f 44f
9:00am 13ft 8s 27 34 mph 1007.6mb 35f 46f
8:00am  -   -  27
mph
1007.9mb - 46f
6:00am 10ft 8s 25 29 mph 1008.1mb 34f 44f
5:00am 9.5ft 8s 25 29 mph 1008.7mb 34f 44f
4:00am 9.5ft 8s 22 25 mph 1009.9mb 34f 43f
3:00am 9ft 7s 25 27 mph 1010.4mb 35f 44f
2:00am 9ft 8s 25 29 mph 1011.2mb 35f 45f
1:00am  -   -  22
mph
1012mb 35f 44f
12:00am 7.5ft 8s 25 29 mph 1012.6mb 36f 44f
Tue 04/15 11:00pm 7ft 6s 20 27 mph 1013.6mb 36f 43f
10:00pm 6.5ft 6s 20 27 mph 1013.8mb 36f 43f
9:00pm 6ft 5s 22 27 mph 1014.3mb 36f 44f
8:00pm 5ft 6s 20 25 mph 1015mb 36f 43f
7:00pm 6ft 6s 20 22 mph 1014.9mb 36f 43f
6:00pm 5.5ft 6s 22 27 mph 1014.8mb 36f 45f
5:00pm 5ft 6s 18 22 mph 1015.7mb 36f 42f
4:00pm 5ft 6s 18 20 mph 1016.2mb 37f 41f
3:00pm 5ft 6s 13 18 mph 1017mb 37f 41f
2:00pm 4.5ft 6s 16 18 mph 1017.3mb 37f 42f
1:00pm 4.5ft 6s 18 22 mph 1017.5mb 36f 42f
12:00pm 4.5ft 5s 16 18 mph 1018.3mb 36f 41f
11:00am 3.5ft 6s 16 18 mph 1018.6mb 36f 42f
10:00am 3.5ft 6s 13 16 mph 1019.2mb 36f 40f
9:00am 4ft 6s 13
mph
1020.1mb 36f 39f
8:00am 4ft 6s 11 13 mph 1020.1mb 36f 39f
7:00am 4.5ft 6s 11 13 mph 1019.9mb 36f 39f
6:00am 4.5ft 5s 4 7 mph 1019.8mb 36f 38f
5:00am 4.5ft 6s 13 16 mph 1019.2mb 36f 40f
4:00am 4.5ft 6s 9 13 mph 1019.1mb 36f 40f
3:00am 4.5ft 6s 11 13 mph 1018.7mb 35f 39f
2:00am 4.5ft 6s 11 13 mph 1018.6mb 35f 38f
1:00am 4.5ft 6s 16 18 mph 1018.4mb 35f 39f
12:00am 4.5ft 6s 13 16 mph 1018.8mb 35f 38f
Mon 04/14 11:00pm 4.5ft 6s 11 13 mph 1019.1mb 35f 38f
10:00pm 5ft 6s 13 16 mph 1019mb 35f 38f
9:00pm 5ft 6s 13 16 mph 1019.3mb 35f 38f
8:00pm 6ft 6s 20 25 mph 1018.8mb 35f 40f
7:00pm 6.5ft 6s 22 27 mph 1018.1mb 35f 41f
6:00pm 6ft 6s 18 22 mph 1018.2mb 35f 39f
5:00pm 6ft 6s 11 16 mph 1018.3mb 36f 40f
4:00pm 6ft 6s 9 13 mph 1018.5mb 35f 40f
3:00pm 5.5ft 6s 11 13 mph 1018.6mb 36f 40f
2:00pm 6ft 7s 9 13 mph 1018.7mb 35f 40f
1:00pm 5.5ft 6s 11 13 mph 1018.8mb 35f 40f
12:00pm 6ft 6s 13 16 mph 1018.8mb 34f 39f
11:00am 6.5ft 6s 16 20 mph 1018.8mb 34f 39f
10:00am 6.5ft 6s 13 16 mph 1019.3mb 34f 40f
9:00am 6.5ft 6s 22 25 mph 1018.6mb 34f 41f
8:00am 6.5ft 6s 20 25 mph 1019.1mb 34f 40f
7:00am 6ft 6s 18 22 mph 1019.8mb 34f 41f
6:00am 6ft 6s 22 27 mph 1020mb 34f 40f
5:00am 5ft 5s 22 27 mph 1020.2mb 34f 39f
4:00am 4.5ft 5s 13 16 mph 1022.6mb 34f 37f
3:00am 4.5ft 9s 13 16 mph 1024.1mb 34f 37f
2:00am 4ft 9s 16 18 mph 1024.8mb 34f 36f
1:00am 4ft 10s 13 18 mph 1026mb 34f 36f